createdAt,value
2022-11-06T00:00:23.281Z,100124.28
2022-11-06T00:01:25.029Z,100125.31
2022-11-06T00:02:26.912Z,100124.69
2022-11-06T00:03:28.767Z,100123.84
2022-11-06T00:04:30.552Z,100116.78
2022-11-06T00:05:51.176Z,100118.66
2022-11-06T00:06:53.011Z,100122.63
2022-11-06T00:07:54.857Z,100112.22
2022-11-06T00:08:58.642Z,100107.22
2022-11-06T00:10:00.321Z,100099.28
2022-11-06T00:11:07.785Z,100104.75
2022-11-06T00:12:09.565Z,100110.13
2022-11-06T00:13:11.313Z,100098.81
2022-11-06T00:14:13.074Z,100111.34
2022-11-06T00:15:14.963Z,100107.16
2022-11-06T00:16:16.646Z,100105.47
2022-11-06T00:17:18.381Z,100084.28
2022-11-06T00:18:20.391Z,100092.59
2022-11-06T00:19:22.152Z,100098.81
2022-11-06T00:20:24.186Z,100099.66
2022-11-06T00:21:27.806Z,100100.06
2022-11-06T00:22:33.801Z,100093.63
2022-11-06T00:23:35.557Z,100106.91
2022-11-06T00:24:37.239Z,100105.44
2022-11-06T00:25:42.622Z,100097.53
2022-11-06T00:26:45.293Z,100105.63
2022-11-06T00:27:49.396Z,100090.31
2022-11-06T00:28:51.909Z,100094.84
2022-11-06T00:29:53.694Z,100094.03
2022-11-06T00:31:07.389Z,100088.81
2022-11-06T00:32:09.362Z,100092.16
2022-11-06T00:33:11.147Z,100085.31
2022-11-06T00:34:13.166Z,100089.19
2022-11-06T00:35:15.026Z,100082.13
2022-11-06T00:36:19.695Z,100080.03
2022-11-06T00:37:21.390Z,100066.28
2022-11-06T00:38:23.213Z,100072.31
2022-11-06T00:39:25.130Z,100079.03
2022-11-06T00:40:26.832Z,100075.00
2022-11-06T00:41:28.806Z,100071.28
2022-11-06T00:42:30.734Z,100076.69
2022-11-06T00:43:33.664Z,100062.31
2022-11-06T00:44:35.336Z,100074.84
2022-11-06T00:45:37.009Z,100072.31
2022-11-06T00:46:38.926Z,100073.34
2022-11-06T00:47:40.722Z,100073.34
2022-11-06T00:48:42.561Z,100059.19
2022-11-06T00:49:44.386Z,100070.88
2022-11-06T00:50:46.226Z,100076.25
2022-11-06T00:51:47.978Z,100069.19
2022-11-06T00:52:49.726Z,100070.00
2022-11-06T00:53:56.655Z,100072.06
2022-11-06T00:54:58.323Z,100072.69
2022-11-06T00:56:10.633Z,100068.34
2022-11-06T00:57:12.314Z,100064.63
2022-11-06T00:58:14.492Z,100073.72
2022-11-06T00:59:16.545Z,100069.38
2022-11-06T01:00:20.503Z,100069.59
2022-11-06T01:01:25.676Z,100066.03
2022-11-06T01:02:27.807Z,100057.94
2022-11-06T01:03:29.871Z,100058.16
2022-11-06T01:04:31.624Z,100057.31
2022-11-06T01:05:33.317Z,100057.53
2022-11-06T01:06:38.571Z,100045.91
2022-11-06T01:07:40.762Z,100045.91
2022-11-06T01:08:43.040Z,100038.66
2022-11-06T01:09:45.149Z,100048.81
2022-11-06T01:10:46.814Z,100032.19
2022-11-06T01:13:13.229Z,100035.59
2022-11-06T01:14:16.524Z,100032.44
2022-11-06T01:15:18.413Z,100022.78
2022-11-06T01:16:20.572Z,100035.06
2022-11-06T01:17:22.257Z,100039.59
2022-11-06T01:18:24.028Z,100031.91
2022-11-06T01:19:25.770Z,100042.94
2022-11-06T01:20:27.464Z,100040.25
2022-11-06T01:21:35.535Z,100031.50
2022-11-06T01:22:37.229Z,100042.94
2022-11-06T01:23:39.129Z,100039.59
2022-11-06T01:24:41.168Z,100029.84
2022-11-06T01:25:42.994Z,100017.78
2022-11-06T01:26:58.809Z,100030.69
2022-11-06T01:28:06.690Z,100026.41
2022-11-06T01:29:11.276Z,100025.09
2022-11-06T01:30:13.391Z,100028.81
2022-11-06T01:31:24.013Z,100018.81
2022-11-06T01:32:25.838Z,100023.44
2022-11-06T01:33:27.570Z,100029.03
2022-11-06T01:34:29.512Z,100033.56
2022-11-06T01:35:31.188Z,100027.53
2022-11-06T01:36:33.654Z,100020.47
2022-11-06T01:37:35.399Z,100034.97
2022-11-06T01:38:40.021Z,100024.19
2022-11-06T01:39:42.411Z,100025.88
2022-11-06T01:40:46.442Z,100027.72
2022-11-06T01:41:50.416Z,100017.97
2022-11-06T01:42:52.205Z,100021.50
2022-11-06T01:43:55.522Z,100013.44
2022-11-06T01:45:06.265Z,100017.97
2022-11-06T01:46:07.986Z,99994.88
2022-11-06T01:47:27.817Z,100010.34
2022-11-06T01:48:29.611Z,100010.34
2022-11-06T01:49:37.524Z,100003.22
2022-11-06T01:50:43.548Z,100012.41
2022-11-06T01:51:53.200Z,100012.41
2022-11-06T01:52:56.004Z,100007.84
2022-11-06T01:53:58.166Z,100010.09
2022-11-06T01:55:12.837Z,100004.72
2022-11-06T01:56:15.473Z,100008.03
2022-11-06T01:57:17.347Z,100006.56
2022-11-06T01:58:22.373Z,99989.06
2022-11-06T01:59:27.958Z,100004.25
2022-11-06T02:00:31.218Z,100000.91
2022-11-06T02:01:33.363Z,100007.56
2022-11-06T02:02:36.662Z,100007.97
2022-11-06T02:03:42.853Z,100004.25
2022-11-06T02:04:46.241Z,99989.72
2022-11-06T02:05:48.261Z,100004.25
2022-11-06T02:06:50.590Z,99998.84
2022-11-06T02:07:53.026Z,100001.75
2022-11-06T02:08:55.237Z,100000.09
2022-11-06T02:09:56.974Z,99998.22
2022-11-06T02:10:58.772Z,99992.00
2022-11-06T02:12:13.817Z,99991.16
2022-11-06T02:13:34.078Z,99991.03
2022-11-06T02:14:43.406Z,99988.53
2022-11-06T02:16:09.852Z,99995.78
2022-11-06T02:17:36.745Z,99988.16
2022-11-06T02:18:59.609Z,99985.47
2022-11-06T02:20:07.562Z,99992.53
2022-11-06T02:21:30.612Z,99991.88
2022-11-06T02:22:38.526Z,99988.53
2022-11-06T02:24:17.913Z,99986.50
2022-11-06T02:25:48.209Z,99983.41
2022-11-06T02:27:19.125Z,99982.38
2022-11-06T02:28:20.848Z,99977.38
2022-11-06T02:29:33.246Z,99971.13
2022-11-06T02:30:39.970Z,99964.84
2022-11-06T02:31:43.787Z,99967.72
2022-11-06T02:32:52.945Z,99970.59
2022-11-06T02:34:00.164Z,99978.31
2022-11-06T02:35:10.590Z,99970.97
2022-11-06T02:36:19.763Z,99964.31
2022-11-06T02:37:28.705Z,99978.31
2022-11-06T02:38:39.872Z,99978.31
2022-11-06T02:39:45.475Z,99982.03
2022-11-06T02:40:57.821Z,99978.31
2022-11-06T02:42:00.406Z,99980.16
2022-11-06T02:43:06.898Z,99966.19
2022-11-06T02:44:14.046Z,99971.44
2022-11-06T02:45:18.894Z,99979.50
2022-11-06T02:46:26.746Z,99974.31
2022-11-06T02:47:32.147Z,99975.16
2022-11-06T02:48:42.502Z,99968.94
2022-11-06T02:49:50.159Z,99971.63
2022-11-06T02:50:55.586Z,99964.75
2022-11-06T02:52:03.539Z,99962.47
2022-11-06T02:53:07.987Z,99961.44
2022-11-06T02:54:11.767Z,99956.44
2022-11-06T02:55:29.429Z,99967.91
2022-11-06T02:56:39.186Z,99968.72
2022-11-06T02:57:46.170Z,99967.91
2022-11-06T02:58:54.864Z,99970.59
2022-11-06T03:00:10.606Z,99968.72
2022-11-06T03:01:32.037Z,99961.13
2022-11-06T03:02:37.732Z,99956.13
2022-11-06T03:03:45.616Z,99957.31
2022-11-06T03:04:58.572Z,99957.16
2022-11-06T03:06:19.674Z,99962.53
2022-11-06T03:07:43.310Z,99957.78
2022-11-06T03:08:57.310Z,99958.59
2022-11-06T03:09:59.200Z,99960.66
2022-11-06T03:11:14.044Z,99960.19
2022-11-06T03:12:21.584Z,99961.03
2022-11-06T03:13:32.802Z,99958.53
2022-11-06T03:14:45.698Z,99954.56
2022-11-06T03:16:05.431Z,99956.47
2022-11-06T03:17:23.065Z,99954.44
2022-11-06T03:18:41.776Z,99945.53
2022-11-06T03:19:53.658Z,99951.94
2022-11-06T03:21:27.501Z,99956.47
2022-11-06T03:22:58.457Z,99955.34
2022-11-06T03:24:11.260Z,99954.25
2022-11-06T03:25:54.485Z,99956.78
2022-11-06T03:26:58.996Z,99948.84
2022-11-06T03:28:12.468Z,99939.25
2022-11-06T03:29:43.370Z,99956.13
2022-11-06T03:30:54.204Z,99937.38
2022-11-06T03:32:01.620Z,99945.47
2022-11-06T03:33:20.994Z,99951.09
2022-11-06T03:34:30.577Z,99939.03
2022-11-06T03:35:41.593Z,99943.59
2022-11-06T03:36:47.618Z,99951.03
2022-11-06T03:37:59.783Z,99949.16
2022-11-06T03:39:05.428Z,99941.06
2022-11-06T03:40:12.042Z,99942.25
2022-11-06T03:41:25.624Z,99950.19
2022-11-06T03:42:30.545Z,99948.09
2022-11-06T03:43:36.255Z,99947.72
2022-11-06T03:44:43.373Z,99940.66
2022-11-06T03:45:47.280Z,99938.78
2022-11-06T03:47:04.148Z,99939.81
2022-11-06T03:48:20.063Z,99943.16
2022-11-06T03:49:37.152Z,99935.91
2022-11-06T03:50:47.960Z,99940.06
2022-11-06T03:52:03.206Z,99935.06
2022-11-06T03:53:27.480Z,99940.31
2022-11-06T03:55:08.485Z,99934.19
2022-11-06T03:56:17.849Z,99930.41
2022-11-06T03:57:29.743Z,99917.91
2022-11-06T03:58:37.785Z,99928.66
2022-11-06T03:59:44.278Z,99935.06
2022-11-06T04:00:46.840Z,99923.03
2022-11-06T04:01:50.432Z,99919.53
2022-11-06T04:03:05.117Z,99928.63
2022-11-06T04:04:20.044Z,99930.72
2022-11-06T04:05:24.824Z,99924.50
2022-11-06T04:06:35.977Z,99930.06
2022-11-06T04:08:04.033Z,99913.03
2022-11-06T04:09:28.132Z,99920.59
2022-11-06T04:10:49.592Z,99937.38
2022-11-06T04:12:10.282Z,99929.31
2022-11-06T04:13:30.557Z,99926.59
2022-11-06T04:14:35.546Z,99925.97
2022-11-06T04:15:42.962Z,99923.66
2022-11-06T04:16:52.331Z,99925.72
2022-11-06T04:17:54.066Z,99934.66
2022-11-06T04:18:55.823Z,99934.19
2022-11-06T04:20:01.480Z,99928.16
2022-11-06T04:21:22.249Z,99933.53
2022-11-06T04:22:29.646Z,99927.59
2022-11-06T04:24:31.281Z,99927.00
2022-11-06T04:26:01.835Z,99918.75
2022-11-06T04:27:22.204Z,99924.56
2022-11-06T04:28:49.305Z,99923.53
2022-11-06T04:30:09.956Z,99925.41
2022-11-06T04:31:22.252Z,99919.94
2022-11-06T04:32:35.906Z,99929.06
2022-11-06T04:34:04.729Z,99923.28
2022-11-06T04:35:30.293Z,99937.59
2022-11-06T04:36:39.881Z,99930.06
2022-11-06T04:38:11.610Z,99938.41
2022-11-06T04:39:22.416Z,99937.13
2022-11-06T04:40:33.250Z,99931.09
2022-11-06T04:41:45.450Z,99932.13
2022-11-06T04:42:58.719Z,99934.00
2022-11-06T04:44:15.449Z,99936.47
2022-11-06T04:45:27.296Z,99942.09
2022-11-06T04:47:04.081Z,99941.09
2022-11-06T04:48:07.060Z,99943.34
2022-11-06T04:49:11.315Z,99937.91
2022-11-06T04:50:14.814Z,99944.31
2022-11-06T04:51:22.453Z,99939.69
2022-11-06T04:52:27.587Z,99945.53
2022-11-06T04:53:32.099Z,99948.41
2022-11-06T04:54:35.350Z,99942.19
2022-11-06T04:55:52.953Z,99936.78
2022-11-06T04:57:00.528Z,99936.38
2022-11-06T04:58:02.252Z,99946.38
2022-11-06T04:59:05.653Z,99944.06
2022-11-06T05:00:08.317Z,99933.22
2022-11-06T05:01:10.151Z,99946.75
2022-11-06T05:02:12.015Z,99945.09
2022-11-06T05:03:15.193Z,99943.41
2022-11-06T05:04:16.909Z,99935.53
2022-11-06T05:05:18.650Z,99929.44
2022-11-06T05:06:21.773Z,99938.41
2022-11-06T05:07:25.214Z,99943.41
2022-11-06T05:08:27.033Z,99929.84
2022-11-06T05:09:28.868Z,99941.75
2022-11-06T05:10:30.564Z,99941.75
2022-11-06T05:11:32.426Z,99935.34
2022-11-06T05:12:34.193Z,99934.69
2022-11-06T05:13:36.162Z,99942.94
2022-11-06T05:14:37.883Z,99936.53
2022-11-06T05:15:39.951Z,99940.09
2022-11-06T05:16:42.072Z,99941.75
2022-11-06T05:17:43.799Z,99938.41
2022-11-06T05:18:45.468Z,99940.09
2022-11-06T05:19:47.262Z,99935.53
2022-11-06T05:20:49.102Z,99930.13
2022-11-06T05:22:09.065Z,99940.09
2022-11-06T05:23:10.860Z,99941.19
2022-11-06T05:24:12.533Z,99930.53
2022-11-06T05:25:14.309Z,99939.69
2022-11-06T05:26:16.051Z,99940.72
2022-11-06T05:27:17.806Z,99936.38
2022-11-06T05:28:19.497Z,99932.81
2022-11-06T05:29:21.268Z,99937.41
2022-11-06T05:30:24.584Z,99933.03
2022-11-06T05:31:26.924Z,99899.69
2022-11-06T05:32:30.942Z,99931.16
2022-11-06T05:33:33.253Z,99933.84
2022-11-06T05:34:35.021Z,99947.13
2022-11-06T05:35:36.868Z,99941.75
2022-11-06T05:36:38.524Z,99941.75
2022-11-06T05:37:41.061Z,99935.53
2022-11-06T05:38:42.773Z,99929.06
2022-11-06T05:39:44.461Z,99939.06
2022-11-06T05:40:46.725Z,99938.22
2022-11-06T05:41:48.478Z,99929.06
2022-11-06T05:42:50.457Z,99936.38
2022-11-06T05:43:52.569Z,99940.09
2022-11-06T05:44:54.370Z,99938.22
2022-11-06T05:45:56.192Z,99928.28
2022-11-06T05:46:57.865Z,99922.84
2022-11-06T05:47:59.564Z,99932.00
2022-11-06T05:49:01.315Z,99938.22
2022-11-06T05:50:03.093Z,99922.84
2022-11-06T05:51:07.032Z,99936.53
2022-11-06T05:52:08.866Z,99931.81
2022-11-06T05:53:10.673Z,99933.69
2022-11-06T05:54:12.566Z,99935.53
2022-11-06T05:55:15.296Z,99947.13
2022-11-06T05:56:17.335Z,99934.44
2022-11-06T05:57:19.056Z,99944.44
2022-11-06T05:58:20.767Z,99945.47
2022-11-06T05:59:22.549Z,99921.75
2022-11-06T06:00:24.340Z,99938.22
2022-11-06T06:01:26.094Z,99937.41
2022-11-06T06:02:28.068Z,99940.09
2022-11-06T06:03:29.966Z,99934.06
2022-11-06T06:04:31.712Z,99921.16
2022-11-06T06:05:33.394Z,99939.44
2022-11-06T06:06:35.533Z,99942.13
2022-11-06T06:07:37.398Z,99941.09
2022-11-06T06:08:39.150Z,99935.72
2022-11-06T06:09:41.013Z,99936.75
2022-11-06T06:10:44.361Z,99943.16
2022-11-06T06:11:46.198Z,99925.72
2022-11-06T06:12:50.501Z,99928.41
2022-11-06T06:13:52.262Z,99931.75
2022-11-06T06:14:54.280Z,99931.38
2022-11-06T06:16:01.624Z,99936.75
2022-11-06T06:17:03.381Z,99927.66
2022-11-06T06:18:06.272Z,99929.72
2022-11-06T06:19:08.020Z,99938.59
2022-11-06T06:20:10.405Z,99933.41
2022-11-06T06:21:12.153Z,99937.13
2022-11-06T06:22:14.413Z,99940.47
2022-11-06T06:23:16.121Z,99947.69
2022-11-06T06:24:17.862Z,99951.41
2022-11-06T06:25:22.852Z,99948.94
2022-11-06T06:26:25.058Z,99944.19
2022-11-06T06:27:27.674Z,99936.03
2022-11-06T06:28:29.408Z,99952.25
2022-11-06T06:29:31.097Z,99946.03
2022-11-06T06:30:32.973Z,99947.91
2022-11-06T06:31:34.721Z,99950.78
2022-11-06T06:32:36.396Z,99958.03
2022-11-06T06:33:38.060Z,99961.53
2022-11-06T06:34:39.837Z,99962.56
2022-11-06T06:35:41.676Z,99957.00
2022-11-06T06:36:43.529Z,99956.16
2022-11-06T06:37:55.279Z,99948.03
2022-11-06T06:38:57.169Z,99954.09
2022-11-06T06:39:58.853Z,99957.00
2022-11-06T06:41:05.149Z,99962.38
2022-11-06T06:42:06.884Z,99958.66
2022-11-06T06:43:08.637Z,99960.72
2022-11-06T06:44:10.613Z,99954.06
2022-11-06T06:45:12.424Z,99962.75
2022-11-06T06:46:14.195Z,99945.25
2022-11-06T06:47:19.004Z,99956.91
2022-11-06T06:48:20.770Z,99962.75
2022-11-06T06:49:22.520Z,99965.47
2022-11-06T06:50:24.189Z,99968.16
2022-11-06T06:51:25.945Z,99967.28
2022-11-06T06:52:27.685Z,99977.25
2022-11-06T06:53:29.625Z,99978.91
2022-11-06T06:54:31.362Z,99970.00
2022-11-06T06:55:33.237Z,99971.88
2022-11-06T06:56:34.944Z,99968.31
2022-11-06T06:57:36.614Z,99978.06
2022-11-06T06:58:38.282Z,99976.41
2022-11-06T06:59:40.014Z,99978.91
2022-11-06T07:00:41.891Z,99980.56
2022-11-06T07:01:43.817Z,99979.94
2022-11-06T07:02:45.576Z,99981.78
2022-11-06T07:03:47.331Z,99976.97
2022-11-06T07:04:49.128Z,99971.78
2022-11-06T07:05:50.862Z,99978.06
2022-11-06T07:06:55.611Z,99984.28
2022-11-06T07:07:57.507Z,99982.25
2022-11-06T07:08:59.314Z,99978.69
2022-11-06T07:10:01.090Z,99969.56
2022-11-06T07:11:06.023Z,99978.69
2022-11-06T07:12:07.834Z,99973.69
2022-11-06T07:13:09.598Z,99971.22
2022-11-06T07:14:11.401Z,99969.44
2022-11-06T07:15:13.537Z,99983.97
2022-11-06T07:16:15.355Z,99990.84
2022-11-06T07:17:17.113Z,99964.69
2022-11-06T07:18:19.029Z,99984.03
2022-11-06T07:19:20.977Z,99981.19
2022-11-06T07:20:22.683Z,99988.66
2022-11-06T07:21:25.321Z,99985.31
2022-11-06T07:22:33.811Z,99988.53
2022-11-06T07:23:39.121Z,99975.44
2022-11-06T07:24:40.936Z,99990.28
2022-11-06T07:25:42.828Z,99995.47
2022-11-06T07:26:44.692Z,100000.47
2022-11-06T07:27:46.432Z,99983.41
2022-11-06T07:28:48.177Z,99990.91
2022-11-06T07:29:49.973Z,99997.66
2022-11-06T07:30:51.867Z,99996.81
2022-11-06T07:31:53.568Z,99997.69
2022-11-06T07:32:55.549Z,99973.34
2022-11-06T07:33:57.237Z,100004.03
2022-11-06T07:34:58.932Z,100007.38
2022-11-06T07:36:06.161Z,100000.09
2022-11-06T07:37:08.491Z,100002.88
2022-11-06T07:38:10.311Z,100002.47
2022-11-06T07:39:12.266Z,100001.22
2022-11-06T07:40:14.905Z,100005.41
2022-11-06T07:41:16.717Z,100005.03
2022-11-06T07:42:18.441Z,100007.31
2022-11-06T07:43:33.141Z,100008.41
2022-11-06T07:44:34.811Z,100018.16
2022-11-06T07:45:38.514Z,100015.09
2022-11-06T07:46:40.205Z,99998.91
2022-11-06T07:47:41.955Z,99999.31
2022-11-06T07:48:43.708Z,100011.59
2022-11-06T07:49:50.555Z,100001.41
2022-11-06T07:50:52.681Z,100004.78
2022-11-06T07:51:54.431Z,100016.22
2022-11-06T07:52:56.420Z,100003.72
2022-11-06T07:53:58.253Z,100008.09
2022-11-06T07:55:00.433Z,100019.34
2022-11-06T07:56:02.617Z,100018.13
2022-11-06T07:57:04.390Z,100028.50
2022-11-06T07:58:06.112Z,100021.44
2022-11-06T07:59:07.956Z,100019.16
2022-11-06T08:00:10.165Z,100025.63
2022-11-06T08:01:18.672Z,100028.09
2022-11-06T08:02:21.192Z,100025.22
2022-11-06T08:03:23.828Z,100027.75
2022-11-06T08:04:25.633Z,100030.22
2022-11-06T08:05:27.310Z,100030.22
2022-11-06T08:06:29.092Z,100028.38
2022-11-06T08:07:30.892Z,100012.97
2022-11-06T08:08:32.899Z,100016.50
2022-11-06T08:09:34.705Z,100017.13
2022-11-06T08:10:40.434Z,99993.81
2022-11-06T08:11:42.325Z,100023.63
2022-11-06T08:12:44.062Z,100026.75
2022-11-06T08:13:45.740Z,100030.28
2022-11-06T08:14:47.506Z,100024.25
2022-11-06T08:15:49.247Z,100032.75
2022-11-06T08:16:50.986Z,100036.50
2022-11-06T08:17:52.666Z,100030.91
2022-11-06T08:18:54.599Z,100026.56
2022-11-06T08:19:56.512Z,100033.63
2022-11-06T08:20:58.193Z,100030.28
2022-11-06T08:21:59.859Z,100028.78
2022-11-06T08:23:03.364Z,100044.22
2022-11-06T08:24:05.715Z,100042.16
2022-11-06T08:25:08.349Z,100038.66
2022-11-06T08:26:11.041Z,100039.47
2022-11-06T08:27:12.746Z,100035.72
2022-11-06T08:28:14.782Z,100041.13
2022-11-06T08:29:17.042Z,100039.28
2022-11-06T08:30:18.764Z,100032.75
2022-11-06T08:31:21.156Z,100046.34
2022-11-06T08:32:22.891Z,100052.53
2022-11-06T08:33:25.116Z,100049.03
2022-11-06T08:34:26.892Z,100047.16
2022-11-06T08:35:28.668Z,100049.03
2022-11-06T08:36:30.489Z,100049.84
2022-11-06T08:37:32.275Z,100049.44
2022-11-06T08:38:34.388Z,100055.25
2022-11-06T08:39:36.225Z,100050.69
2022-11-06T08:40:39.352Z,100063.34
2022-11-06T08:41:41.093Z,100056.09
2022-11-06T08:42:42.790Z,100050.69
2022-11-06T08:43:44.514Z,100042.38
2022-11-06T08:44:46.261Z,100048.41
2022-11-06T08:45:47.990Z,100058.78
2022-11-06T08:46:52.054Z,100058.78
2022-11-06T08:47:54.225Z,100060.47
2022-11-06T08:48:55.977Z,100061.50
2022-11-06T08:49:57.704Z,100059.38
2022-11-06T08:50:59.664Z,100055.19
2022-11-06T08:52:01.470Z,100074.13
2022-11-06T08:53:06.291Z,100067.28
2022-11-06T08:54:08.071Z,100077.66
2022-11-06T08:55:10.044Z,100064.31
2022-11-06T08:56:11.696Z,100064.94
2022-11-06T08:57:13.704Z,100062.25
2022-11-06T08:58:15.857Z,100080.38
2022-11-06T08:59:17.831Z,100062.44
2022-11-06T09:00:19.513Z,100077.66
2022-11-06T09:01:24.000Z,100080.38
2022-11-06T09:02:26.847Z,100077.66
2022-11-06T09:03:28.622Z,100088.47
2022-11-06T09:04:30.359Z,100067.28
2022-11-06T09:05:32.379Z,100079.34
2022-11-06T09:06:34.388Z,100083.06
2022-11-06T09:07:36.101Z,100077.66
2022-11-06T09:08:37.786Z,100078.69
2022-11-06T09:09:39.567Z,100072.28
2022-11-06T09:10:42.542Z,100073.31
2022-11-06T09:11:44.255Z,100080.16
2022-11-06T09:12:46.093Z,100073.09
2022-11-06T09:13:47.890Z,100073.94
2022-11-06T09:14:49.563Z,100063.16
2022-11-06T09:15:51.529Z,100067.28
2022-11-06T09:16:53.704Z,100053.97
2022-11-06T09:17:55.616Z,100063.16
2022-11-06T09:18:57.876Z,100065.84
2022-11-06T09:19:59.804Z,100064.81
2022-11-06T09:21:01.501Z,100046.22
2022-11-06T09:22:03.185Z,100064.81
2022-11-06T09:23:07.077Z,100081.00
2022-11-06T09:24:09.114Z,100071.88
2022-11-06T09:25:11.455Z,100065.63
2022-11-06T09:26:13.167Z,100071.88
2022-11-06T09:27:14.828Z,100074.56
2022-11-06T09:28:17.097Z,100055.66
2022-11-06T09:29:18.784Z,100062.97
2022-11-06T09:30:23.096Z,100070.22
2022-11-06T09:31:24.799Z,100073.09
2022-11-06T09:32:26.576Z,100072.72
2022-11-06T09:33:28.429Z,100066.50
2022-11-06T09:34:30.176Z,100065.66
2022-11-06T09:35:33.751Z,100073.94
2022-11-06T09:36:36.661Z,100077.28
2022-11-06T09:37:38.434Z,100087.03
2022-11-06T09:38:40.244Z,100085.38
2022-11-06T09:39:41.938Z,100080.81
2022-11-06T09:40:49.050Z,100078.31
2022-11-06T09:41:58.314Z,100085.38
2022-11-06T09:43:04.434Z,100090.59
2022-11-06T09:44:31.328Z,100083.53
2022-11-06T09:45:34.938Z,100090.59
2022-11-06T09:47:50.123Z,100082.28
2022-11-06T09:49:20.694Z,100086.25
2022-11-06T09:50:29.706Z,100079.00
2022-11-06T09:51:50.946Z,100076.09
2022-11-06T09:53:03.069Z,100071.94
2022-11-06T09:54:20.052Z,100087.91
2022-11-06T09:55:44.581Z,100081.25
2022-11-06T09:56:49.644Z,100083.53
2022-11-06T09:57:56.096Z,100083.13
2022-11-06T09:58:59.909Z,100072.50
2022-11-06T10:00:05.229Z,100076.25
2022-11-06T10:01:23.271Z,100077.28
2022-11-06T10:02:38.106Z,100072.50
2022-11-06T10:03:45.828Z,100076.47
2022-11-06T10:04:58.221Z,100078.94
2022-11-06T10:05:59.991Z,100073.53
2022-11-06T10:07:01.773Z,100084.56
2022-11-06T10:08:07.494Z,100077.66
2022-11-06T10:09:11.083Z,100084.91
2022-11-06T10:10:18.257Z,100078.88
2022-11-06T10:11:20.038Z,100080.38
2022-11-06T10:12:39.979Z,100086.41
2022-11-06T10:14:12.469Z,100081.47
2022-11-06T10:15:26.291Z,100073.53
2022-11-06T10:16:46.769Z,100078.75
2022-11-06T10:18:12.512Z,100081.25
2022-11-06T10:19:24.139Z,100078.94
2022-11-06T10:20:40.178Z,100078.94
2022-11-06T10:21:54.325Z,100071.00
2022-11-06T10:23:17.577Z,100075.63
2022-11-06T10:24:44.733Z,100075.84
2022-11-06T10:26:02.506Z,100078.94
2022-11-06T10:27:13.680Z,100086.41
2022-11-06T10:28:15.889Z,100079.34
2022-11-06T10:29:35.676Z,100078.69
2022-11-06T10:31:10.208Z,100075.63
2022-11-06T10:32:27.433Z,100076.25
2022-11-06T10:33:34.412Z,100076.63
2022-11-06T10:34:47.234Z,100078.88
2022-11-06T10:35:59.912Z,100078.88
2022-11-06T10:37:11.879Z,100082.59
2022-11-06T10:38:21.102Z,100082.16
2022-11-06T10:39:28.770Z,100089.22
2022-11-06T10:40:32.216Z,100089.78
2022-11-06T10:41:35.733Z,100080.88
2022-11-06T10:42:41.517Z,100089.63
2022-11-06T10:44:05.197Z,100093.13
2022-11-06T10:45:14.670Z,100093.63
2022-11-06T10:46:37.645Z,100099.00
2022-11-06T10:47:45.233Z,100095.06
2022-11-06T10:48:53.217Z,100097.13
2022-11-06T10:50:03.880Z,100097.13
2022-11-06T10:51:28.615Z,100087.94
2022-11-06T10:52:55.156Z,100089.50
2022-11-06T10:54:05.815Z,100090.53
2022-11-06T10:55:31.891Z,100096.56
2022-11-06T10:56:36.615Z,100097.75
2022-11-06T10:57:52.294Z,100092.59
2022-11-06T10:58:54.361Z,100100.00
2022-11-06T10:59:56.468Z,100100.41
2022-11-06T11:01:05.984Z,100103.50
2022-11-06T11:02:22.964Z,100106.44
2022-11-06T11:03:30.061Z,100104.94
2022-11-06T11:04:32.877Z,100100.41
2022-11-06T11:05:39.630Z,100102.47
2022-11-06T11:06:41.466Z,100099.13
2022-11-06T11:07:46.014Z,100093.72
2022-11-06T11:08:50.499Z,100091.03
2022-11-06T11:09:52.216Z,100091.59
2022-11-06T11:11:05.247Z,100100.16
2022-11-06T11:12:32.893Z,100099.00
2022-11-06T11:13:34.704Z,100095.47
2022-11-06T11:14:36.535Z,100092.31
2022-11-06T11:15:46.438Z,100088.97
2022-11-06T11:16:48.992Z,100092.50
2022-11-06T11:18:12.659Z,100089.41
2022-11-06T11:19:35.211Z,100095.28
2022-11-06T11:20:41.663Z,100073.81
2022-11-06T11:21:55.400Z,100090.25
2022-11-06T11:23:22.944Z,100085.53
2022-11-06T11:24:25.920Z,100066.75
2022-11-06T11:25:27.584Z,100073.19
2022-11-06T11:26:31.947Z,100083.97
2022-11-06T11:27:38.420Z,100076.69
2022-11-06T11:28:41.205Z,100072.16
2022-11-06T11:29:48.180Z,100072.34
2022-11-06T11:31:06.823Z,100073.81
2022-11-06T11:32:08.860Z,100077.16
2022-11-06T11:33:13.852Z,100069.47
2022-11-06T11:34:22.620Z,100079.22
2022-11-06T11:35:28.496Z,100067.59
2022-11-06T11:36:50.661Z,100072.41
2022-11-06T11:37:52.518Z,100069.69
2022-11-06T11:38:54.336Z,100070.09
2022-11-06T11:39:56.628Z,100066.53
2022-11-06T11:41:21.817Z,100069.47
2022-11-06T11:42:33.717Z,100065.53
2022-11-06T11:43:35.942Z,100063.84
2022-11-06T11:44:37.791Z,100073.81
2022-11-06T11:45:39.527Z,100064.84
2022-11-06T11:46:52.991Z,100077.56
2022-11-06T11:48:13.325Z,100078.81
2022-11-06T11:49:33.225Z,100075.72
2022-11-06T11:50:35.081Z,100065.72
2022-11-06T11:51:40.504Z,100080.88
2022-11-06T11:52:47.150Z,100070.03
2022-11-06T11:53:48.973Z,100071.25
2022-11-06T11:54:53.852Z,100086.66
2022-11-06T11:55:56.915Z,100075.88
2022-11-06T11:57:06.655Z,100083.34
2022-11-06T11:58:23.373Z,100088.34
2022-11-06T11:59:37.806Z,100083.59
2022-11-06T12:00:51.499Z,100077.34
2022-11-06T12:01:56.921Z,100076.53
2022-11-06T12:03:06.392Z,100079.22
2022-11-06T12:04:16.784Z,100072.09
2022-11-06T12:05:24.547Z,100065.50
2022-11-06T12:06:26.405Z,100079.00
2022-11-06T12:07:33.894Z,100075.88
2022-11-06T12:08:38.308Z,100062.53
2022-11-06T12:09:45.011Z,100073.19
2022-11-06T12:10:46.812Z,100074.00
2022-11-06T12:11:48.594Z,100060.44
2022-11-06T12:12:51.812Z,100082.50
2022-11-06T12:14:21.400Z,100084.59
2022-11-06T12:15:28.209Z,100079.84
2022-11-06T12:16:30.008Z,100076.31
2022-11-06T12:17:35.480Z,100076.91
2022-11-06T12:18:42.454Z,100077.94
2022-11-06T12:19:51.938Z,100060.03
2022-11-06T12:21:12.136Z,100079.22
2022-11-06T12:22:23.193Z,100075.50
2022-11-06T12:23:30.731Z,100053.84
2022-11-06T12:24:56.585Z,100057.13
2022-11-06T12:26:37.188Z,100080.94
2022-11-06T12:27:42.727Z,100064.06
2022-11-06T12:28:48.958Z,100036.56
2022-11-06T12:30:25.621Z,100082.56
2022-11-06T12:31:39.158Z,100073.44
2022-11-06T12:32:40.950Z,100084.84
2022-11-06T12:34:05.630Z,100081.28
2022-11-06T12:35:28.169Z,100086.34
2022-11-06T12:36:39.360Z,100084.84
2022-11-06T12:37:54.510Z,100082.34
2022-11-06T12:39:01.471Z,100083.38
2022-11-06T12:40:20.864Z,100071.75
2022-11-06T12:41:28.914Z,100064.06
2022-11-06T12:42:34.864Z,100080.88
2022-11-06T12:43:44.589Z,100074.63
2022-11-06T12:44:47.994Z,100072.56
2022-11-06T12:46:18.966Z,100073.19
2022-11-06T12:47:26.772Z,100077.16
2022-11-06T12:49:02.299Z,100075.72
2022-11-06T12:50:24.181Z,100079.72
2022-11-06T12:51:31.984Z,100073.88
2022-11-06T12:53:08.809Z,100071.38
2022-11-06T12:54:38.276Z,100080.94
2022-11-06T12:55:48.976Z,100086.34